Time;durP1;ratioP1;P1;durP2;ratioP2;P2;SDS_P1;SDS_P2;PMS_P1;PMS_P2;Temp;Humidity;BMP_temperature;BMP_pressure;BME280_temperature;BME280_humidity;BME280_pressure;Samples;Min_cycle;Max_cycle;Signal;HPM_P1;HPM_P2
2022/11/24 00:00:33;;;;;;;17.17;6.83;;;8.10;99.90;;;;;;5033572;28;20209;-70
2022/11/24 00:02:59;;;;;;;14.30;6.17;;;8.10;99.90;;;;;;5033998;28;20181;-70
2022/11/24 00:05:25;;;;;;;16.77;5.93;;;8.10;99.90;;;;;;5032541;28;20183;-70
2022/11/24 00:07:51;;;;;;;14.10;6.43;;;8.10;99.90;;;;;;5034992;28;20180;-70
2022/11/24 00:10:17;;;;;;;14.47;6.30;;;8.10;99.90;;;;;;5053405;28;20248;-69
2022/11/24 00:12:43;;;;;;;21.30;6.43;;;8.20;99.90;;;;;;5053390;28;20242;-70
2022/11/24 00:15:09;;;;;;;15.10;5.60;;;8.20;99.90;;;;;;5055128;28;20257;-70
2022/11/24 00:17:35;;;;;;;16.53;6.43;;;8.20;99.90;;;;;;5073504;28;20214;-70
2022/11/24 00:20:01;;;;;;;13.20;6.17;;;8.20;99.90;;;;;;5066111;28;20218;-70
2022/11/24 00:22:27;;;;;;;12.63;5.83;;;8.30;99.90;;;;;;5062575;28;20212;-73
2022/11/24 00:24:53;;;;;;;17.63;6.87;;;8.30;99.90;;;;;;5027607;28;20274;-70
2022/11/24 00:27:18;;;;;;;12.17;6.10;;;8.40;99.90;;;;;;5059384;28;20697;-70
2022/11/24 00:29:44;;;;;;;23.27;6.60;;;8.30;99.90;;;;;;5062224;28;20271;-71
2022/11/24 00:32:10;;;;;;;14.57;6.57;;;8.30;99.90;;;;;;5098608;28;20192;-70
2022/11/24 00:34:35;;;;;;;19.27;6.07;;;8.40;99.90;;;;;;5103592;28;20192;-70
2022/11/24 00:37:01;;;;;;;22.87;6.80;;;8.40;99.90;;;;;;5047636;28;20643;-70
2022/11/24 00:41:50;;;;;;;11.80;5.43;;;8.30;99.90;;;;;;5151461;27;20512;-69
2022/11/24 00:44:15;;;;;;;21.97;6.73;;;8.30;99.90;;;;;;5129404;27;20191;-69
2022/11/24 00:46:41;;;;;;;18.97;6.70;;;8.30;99.90;;;;;;5150714;27;20572;-70
2022/11/24 00:49:07;;;;;;;13.30;5.97;;;8.20;99.90;;;;;;5142396;27;20211;-69
2022/11/24 00:51:33;;;;;;;21.00;7.67;;;8.20;99.90;;;;;;5096712;28;20189;-69
2022/11/24 00:53:59;;;;;;;16.67;6.33;;;8.20;99.90;;;;;;5086328;28;20262;-69
2022/11/24 00:56:27;;;;;;;21.40;6.40;;;8.20;99.90;;;;;;5118437;28;20218;-69
2022/11/24 00:58:53;;;;;;;19.43;6.53;;;8.20;99.90;;;;;;5109094;28;20208;-69
2022/11/24 01:01:21;;;;;;;16.80;6.80;;;8.20;99.90;;;;;;5118601;28;20264;-69
2022/11/24 01:06:31;;;;;;;17.20;5.80;;;8.10;99.90;;;;;;5151387;27;20540;-69
2022/11/24 01:08:57;;;;;;;19.97;6.90;;;8.10;99.90;;;;;;5125971;28;20219;-69
2022/11/24 01:11:26;;;;;;;22.97;6.73;;;8.00;99.90;;;;;;5115334;27;20190;-70
2022/11/24 01:13:57;;;;;;;16.43;6.20;;;8.00;99.90;;;;;;5149762;27;20738;-70
2022/11/24 01:16:33;;;;;;;19.37;6.23;;;8.00;99.90;;;;;;5140189;27;20229;-70
2022/11/24 01:18:59;;;;;;;14.77;6.50;;;8.00;99.90;;;;;;5145473;27;20203;-69
2022/11/24 01:21:24;;;;;;;18.03;6.97;;;8.00;99.90;;;;;;5118076;28;20228;-70
2022/11/24 01:23:50;;;;;;;25.83;7.27;;;8.00;99.90;;;;;;4859678;28;1358934;-70
2022/11/24 01:26:19;;;;;;;13.93;5.77;;;7.90;99.90;;;;;;4615154;30;20232;-70
2022/11/24 01:28:45;;;;;;;15.07;6.17;;;7.90;99.90;;;;;;4454596;31;1184918;-69
2022/11/24 01:31:11;;;;;;;13.57;5.67;;;7.90;99.90;;;;;;4483639;32;20200;-69
2022/11/24 01:33:37;;;;;;;26.77;6.00;;;7.90;99.90;;;;;;4495530;31;20687;-69
2022/11/24 01:36:04;;;;;;;17.53;6.00;;;8.00;99.90;;;;;;4483589;32;20234;-69
2022/11/24 01:38:30;;;;;;;13.80;6.13;;;7.90;99.90;;;;;;4483394;32;20200;-69
2022/11/24 01:41:03;;;;;;;12.17;6.03;;;7.90;99.90;;;;;;4483323;32;20695;-69
2022/11/24 01:43:30;;;;;;;15.17;6.13;;;8.00;99.90;;;;;;4483404;32;20265;-69
2022/11/24 01:46:00;;;;;;;17.47;6.37;;;8.10;99.90;;;;;;4495215;31;20228;-69
2022/11/24 01:48:31;;;;;;;17.47;6.43;;;8.10;99.90;;;;;;4483623;32;20176;-70
2022/11/24 01:51:09;;;;;;;13.63;6.27;;;8.10;99.90;;;;;;4495308;31;20252;-69
2022/11/24 01:53:36;;;;;;;15.60;6.73;;;8.10;99.90;;;;;;4483347;32;20645;-69
2022/11/24 01:56:03;;;;;;;15.77;6.10;;;8.10;99.90;;;;;;4483233;32;20261;-69
2022/11/24 01:58:31;;;;;;;17.53;6.00;;;8.00;99.90;;;;;;4483100;32;20200;-69
2022/11/24 02:00:56;;;;;;;23.97;5.87;;;8.00;99.90;;;;;;4494952;31;20216;-69
2022/11/24 02:03:27;;;;;;;17.27;6.20;;;8.00;99.90;;;;;;4494994;31;20208;-69
2022/11/24 02:06:11;;;;;;;22.40;6.57;;;8.00;99.90;;;;;;4483227;32;20731;-69
2022/11/24 02:08:54;;;;;;;17.67;5.63;;;7.90;99.90;;;;;;4482919;32;20224;-69
2022/11/24 02:11:23;;;;;;;21.70;6.27;;;7.90;99.90;;;;;;4483021;32;20189;-70
2022/11/24 02:13:52;;;;;;;16.07;6.87;;;7.90;99.90;;;;;;4482906;32;20200;-69
2022/11/24 02:16:17;;;;;;;22.27;6.10;;;7.90;99.90;;;;;;4479427;32;20246;-69
2022/11/24 02:18:43;;;;;;;7.97;5.77;;;7.90;99.90;;;;;;4472316;32;20661;-69
2022/11/24 02:21:12;;;;;;;17.00;6.00;;;7.90;99.90;;;;;;4484422;31;20683;-69
2022/11/24 02:23:38;;;;;;;18.07;6.47;;;7.90;99.90;;;;;;4510389;31;20206;-70
2022/11/24 02:26:09;;;;;;;26.17;6.40;;;7.90;99.90;;;;;;4690963;30;20471;-69
2022/11/24 02:28:35;;;;;;;15.70;6.30;;;7.90;99.90;;;;;;4707601;30;20292;-69
2022/11/24 02:31:02;;;;;;;17.43;6.13;;;7.90;99.90;;;;;;4733656;30;20187;-69
2022/11/24 02:33:29;;;;;;;17.37;6.30;;;7.90;99.90;;;;;;4720351;30;20296;-69
2022/11/24 02:35:54;;;;;;;20.50;6.60;;;7.90;99.90;;;;;;4720540;30;20207;-68
2022/11/24 02:38:29;;;;;;;22.20;6.63;;;8.00;99.90;;;;;;4720010;30;20191;-69
2022/11/24 02:40:55;;;;;;;13.67;5.67;;;8.10;99.90;;;;;;4719813;30;20261;-69
2022/11/24 02:43:22;;;;;;;14.07;6.37;;;8.10;99.90;;;;;;4719728;30;20274;-69
2022/11/24 02:45:48;;;;;;;14.90;6.10;;;8.10;99.90;;;;;;4719852;30;20301;-68
2022/11/24 02:48:14;;;;;;;19.53;5.90;;;8.20;99.90;;;;;;4719610;30;20186;-69
2022/11/24 02:50:40;;;;;;;11.50;5.47;;;8.20;99.90;;;;;;4720120;30;20240;-69
2022/11/24 02:53:06;;;;;;;20.03;6.60;;;8.20;99.90;;;;;;4719886;30;20601;-69
2022/11/24 02:55:32;;;;;;;18.13;6.33;;;8.20;99.90;;;;;;4719441;30;20641;-68
2022/11/24 02:57:57;;;;;;;14.63;5.87;;;8.20;99.90;;;;;;4719525;30;20191;-69
2022/11/24 03:00:24;;;;;;;18.30;5.90;;;8.30;99.90;;;;;;4719445;30;20290;-69
2022/11/24 03:02:49;;;;;;;23.73;6.87;;;8.20;99.90;;;;;;4719415;30;20652;-69
2022/11/24 03:05:15;;;;;;;12.57;6.10;;;8.30;99.90;;;;;;4719284;30;20234;-69
2022/11/24 03:07:41;;;;;;;16.90;6.00;;;8.20;99.90;;;;;;4732602;30;20263;-69
2022/11/24 03:10:07;;;;;;;15.27;5.77;;;8.30;99.90;;;;;;4719355;30;20285;-69
2022/11/24 03:12:33;;;;;;;11.27;5.53;;;8.20;99.90;;;;;;4732557;30;20610;-69
2022/11/24 03:14:59;;;;;;;11.57;5.90;;;8.30;99.90;;;;;;4719540;30;20278;-69
2022/11/24 03:17:25;;;;;;;15.77;6.33;;;8.20;99.90;;;;;;4732574;30;20183;-69
2022/11/24 03:19:51;;;;;;;16.27;6.03;;;8.30;99.90;;;;;;4732891;30;20223;-69
2022/11/24 03:22:16;;;;;;;17.77;6.00;;;8.30;99.90;;;;;;4730769;30;20728;-69
2022/11/24 03:24:42;;;;;;;18.23;6.40;;;8.30;99.90;;;;;;4740193;29;20210;-69
2022/11/24 03:27:08;;;;;;;15.83;6.10;;;8.40;99.90;;;;;;4867868;29;20242;-70
2022/11/24 03:29:33;;;;;;;14.20;5.83;;;8.40;99.90;;;;;;4918188;29;20199;-69
2022/11/24 03:31:59;;;;;;;15.10;6.53;;;8.50;99.90;;;;;;4918566;29;20172;-69
2022/11/24 03:34:25;;;;;;;18.13;6.63;;;8.50;99.90;;;;;;4918593;29;20772;-69
2022/11/24 03:36:51;;;;;;;18.90;6.57;;;8.50;99.90;;;;;;4918764;29;20175;-69
2022/11/24 03:39:16;;;;;;;13.53;5.80;;;8.60;99.90;;;;;;4931075;29;20242;-69
2022/11/24 03:41:42;;;;;;;20.47;5.97;;;8.50;99.90;;;;;;4937315;29;20232;-69
2022/11/24 03:44:08;;;;;;;20.83;6.73;;;8.50;99.90;;;;;;4937346;29;20179;-69
2022/11/24 03:46:33;;;;;;;15.27;6.57;;;8.40;99.90;;;;;;4937211;29;20218;-69
2022/11/24 03:48:59;;;;;;;13.00;5.87;;;8.40;99.90;;;;;;4920202;29;20198;-69
2022/11/24 03:51:25;;;;;;;13.83;6.67;;;8.40;99.90;;;;;;4937252;29;20178;-69
2022/11/24 03:53:50;;;;;;;15.13;5.93;;;8.40;99.90;;;;;;4937407;29;20170;-69
2022/11/24 03:56:16;;;;;;;18.03;6.27;;;8.40;99.90;;;;;;4936987;29;20178;-69
2022/11/24 03:58:42;;;;;;;15.87;7.10;;;8.40;99.90;;;;;;4920045;29;20198;-69
2022/11/24 04:01:07;;;;;;;22.67;6.57;;;8.40;99.90;;;;;;4937040;29;20699;-69
2022/11/24 04:03:33;;;;;;;17.03;6.60;;;8.40;99.90;;;;;;4937055;29;20179;-68
2022/11/24 04:05:59;;;;;;;22.20;7.00;;;8.40;99.90;;;;;;4937234;29;20211;-69
2022/11/24 04:08:25;;;;;;;19.87;6.70;;;8.30;99.90;;;;;;4936719;29;20187;-69
2022/11/24 04:10:52;;;;;;;19.63;6.27;;;8.30;99.90;;;;;;4937163;29;20551;-69
2022/11/24 04:13:21;;;;;;;18.07;6.03;;;8.30;99.90;;;;;;4937390;29;20275;-69
2022/11/24 04:15:47;;;;;;;18.77;5.97;;;8.30;99.90;;;;;;4919899;29;20206;-69
2022/11/24 04:18:13;;;;;;;15.37;5.90;;;8.20;99.90;;;;;;4919688;29;20652;-69
2022/11/24 04:20:40;;;;;;;19.43;6.53;;;8.20;99.90;;;;;;4936639;29;20205;-69
2022/11/24 04:23:07;;;;;;;21.83;6.17;;;8.20;99.90;;;;;;4942139;29;20276;-70
2022/11/24 04:25:33;;;;;;;16.93;6.23;;;8.20;99.90;;;;;;4926744;29;20692;-69
2022/11/24 04:27:58;;;;;;;23.43;6.50;;;8.10;99.90;;;;;;4872364;29;20224;-69
2022/11/24 04:30:26;;;;;;;15.73;5.67;;;8.20;99.90;;;;;;4907721;29;20232;-69
2022/11/24 04:32:52;;;;;;;16.60;5.70;;;8.20;99.90;;;;;;4935941;28;20199;-69
2022/11/24 04:38:12;;;;;;;16.27;5.90;;;8.20;99.90;;;;;;5146800;27;21041;-69
2022/11/24 04:40:37;;;;;;;17.77;5.93;;;8.20;99.90;;;;;;5125670;28;20207;-70
2022/11/24 04:43:03;;;;;;;19.23;6.20;;;8.20;99.90;;;;;;5129701;28;20184;-70
2022/11/24 04:45:29;;;;;;;16.90;5.97;;;8.20;99.90;;;;;;5129113;28;20285;-70
2022/11/24 04:47:54;;;;;;;17.83;5.60;;;8.30;99.90;;;;;;5098871;28;20185;-71
2022/11/24 04:50:20;;;;;;;25.17;5.20;;;8.30;99.90;;;;;;5098997;28;20277;-70
2022/11/24 04:52:46;;;;;;;16.23;5.93;;;8.30;99.90;;;;;;5078868;28;20205;-71
2022/11/24 04:55:12;;;;;;;20.60;6.50;;;8.30;99.90;;;;;;5080634;28;20189;-70
2022/11/24 04:57:38;;;;;;;15.53;6.00;;;8.30;99.90;;;;;;5067569;28;20255;-69
2022/11/24 05:02:08;;;;;;;13.93;5.50;;;8.30;99.90;;;;;;5151379;27;20872;-69
2022/11/24 05:04:34;;;;;;;13.80;5.93;;;8.30;99.90;;;;;;5129447;27;20187;-70
2022/11/24 05:07:00;;;;;;;13.95;6.38;;;8.30;99.90;;;;;;5091026;27;1360957;-70
2022/11/24 05:09:25;;;;;;;16.00;6.43;;;8.20;99.90;;;;;;5059910;28;20275;-69
2022/11/24 05:11:51;;;;;;;20.17;6.40;;;8.20;99.90;;;;;;5052495;28;20274;-69
2022/11/24 05:14:17;;;;;;;19.73;6.20;;;8.10;99.90;;;;;;5070606;28;20205;-69
2022/11/24 05:16:42;;;;;;;15.63;6.33;;;8.10;99.90;;;;;;5070403;28;20586;-69
2022/11/24 05:19:08;;;;;;;20.63;6.10;;;8.00;99.90;;;;;;5070255;28;20646;-69
2022/11/24 05:21:34;;;;;;;18.50;6.30;;;7.90;99.90;;;;;;5070240;28;20654;-69
2022/11/24 05:24:00;;;;;;;26.27;6.20;;;7.90;99.90;;;;;;5070302;28;20185;-69
2022/11/24 05:26:26;;;;;;;18.70;7.27;;;7.90;99.90;;;;;;5070100;28;20185;-69
2022/11/24 05:28:52;;;;;;;18.73;6.27;;;7.80;99.90;;;;;;5070166;28;20198;-69
2022/11/24 05:31:18;;;;;;;21.23;6.67;;;7.80;99.90;;;;;;5070148;28;20232;-69
2022/11/24 05:33:44;;;;;;;21.80;6.17;;;7.80;99.90;;;;;;5052224;28;20269;-69
2022/11/24 05:36:51;;;;;;;19.27;6.20;;;7.80;99.90;;;;;;5070558;28;20189;-69
2022/11/24 05:38:59;;;;;;;21.70;6.53;;;7.80;99.90;;;;;;5069686;28;20242;-69
2022/11/24 05:41:25;;;;;;;20.13;5.83;;;7.70;99.90;;;;;;5069758;28;20611;-69
2022/11/24 05:43:51;;;;;;;21.83;6.60;;;7.70;99.90;;;;;;5069831;28;20178;-69
2022/11/24 05:46:17;;;;;;;16.80;6.33;;;7.70;99.90;;;;;;5069782;28;20174;-69
2022/11/24 05:48:42;;;;;;;19.87;6.60;;;7.70;99.90;;;;;;5069587;28;20198;-69
2022/11/24 05:51:08;;;;;;;22.07;6.60;;;7.70;99.90;;;;;;5069691;28;20170;-69
2022/11/24 05:53:34;;;;;;;19.37;5.60;;;7.70;99.90;;;;;;5070165;28;20215;-69
2022/11/24 05:56:03;;;;;;;17.83;6.30;;;7.70;99.90;;;;;;5069583;28;20666;-69
2022/11/24 05:58:29;;;;;;;15.93;5.83;;;7.70;99.90;;;;;;5069394;28;20196;-69
2022/11/24 06:00:54;;;;;;;17.87;5.83;;;7.60;99.90;;;;;;5051527;28;20288;-69
2022/11/24 06:03:20;;;;;;;19.03;5.97;;;7.60;99.90;;;;;;5051526;28;20174;-69
2022/11/24 06:05:46;;;;;;;16.60;6.13;;;7.60;99.90;;;;;;5069283;28;20590;-69
2022/11/24 06:08:12;;;;;;;19.10;7.00;;;7.60;99.90;;;;;;5040120;28;20680;-69
2022/11/24 06:10:38;;;;;;;11.03;6.07;;;7.60;99.90;;;;;;5011501;28;20726;-69
2022/11/24 06:13:05;;;;;;;17.87;6.10;;;7.70;99.90;;;;;;5001244;28;20184;-69
2022/11/24 06:15:32;;;;;;;17.43;6.27;;;7.70;99.90;;;;;;5016336;28;20179;-69
2022/11/24 06:17:58;;;;;;;28.57;7.47;;;7.70;99.90;;;;;;4998632;28;20184;-69
2022/11/24 06:20:24;;;;;;;17.60;6.80;;;7.70;99.90;;;;;;4998403;28;20646;-69
2022/11/24 06:22:50;;;;;;;19.57;6.73;;;7.70;99.90;;;;;;4998494;28;20194;-69
2022/11/24 06:25:17;;;;;;;23.30;6.83;;;7.70;99.90;;;;;;5016068;28;20246;-69
2022/11/24 06:27:43;;;;;;;26.40;7.13;;;7.70;99.90;;;;;;5016095;28;20593;-69
2022/11/24 06:30:10;;;;;;;22.03;6.73;;;7.70;99.90;;;;;;4998358;28;20254;-69
2022/11/24 06:32:36;;;;;;;24.00;6.27;;;7.70;99.90;;;;;;5016373;28;20180;-69
2022/11/24 06:35:01;;;;;;;21.53;7.37;;;7.70;99.90;;;;;;5015933;28;20194;-69
2022/11/24 06:37:27;;;;;;;19.97;6.27;;;7.70;99.90;;;;;;5015842;28;20203;-69
2022/11/24 06:39:53;;;;;;;19.37;6.30;;;7.80;99.90;;;;;;5015711;28;20286;-69
2022/11/24 06:42:20;;;;;;;25.90;6.53;;;7.80;99.90;;;;;;5015680;28;20519;-70
2022/11/24 06:44:46;;;;;;;25.00;7.30;;;7.80;99.90;;;;;;5015716;28;20696;-69
2022/11/24 06:47:13;;;;;;;27.17;7.00;;;7.80;99.90;;;;;;4998045;28;20184;-70
2022/11/24 06:49:39;;;;;;;19.83;6.50;;;7.80;99.90;;;;;;5015710;28;20570;-69
2022/11/24 06:52:05;;;;;;;15.93;6.47;;;7.80;99.90;;;;;;4998299;28;20714;-70
2022/11/24 06:54:30;;;;;;;16.60;6.20;;;7.90;99.90;;;;;;5016192;28;20180;-69
2022/11/24 06:56:57;;;;;;;21.30;6.90;;;7.90;99.90;;;;;;5015371;28;20183;-69
2022/11/24 06:59:25;;;;;;;23.63;7.87;;;7.90;99.90;;;;;;4998047;28;20203;-69
2022/11/24 07:01:51;;;;;;;21.47;7.17;;;8.00;99.90;;;;;;4997876;28;20203;-69
2022/11/24 07:04:17;;;;;;;22.10;6.97;;;8.00;99.90;;;;;;5015482;28;20172;-69
2022/11/24 07:06:43;;;;;;;17.23;5.73;;;8.00;99.90;;;;;;5015504;28;20230;-69
2022/11/24 07:09:10;;;;;;;19.07;7.27;;;8.00;99.90;;;;;;5015311;28;20627;-69
2022/11/24 07:11:37;;;;;;;21.37;6.90;;;8.00;99.90;;;;;;5015387;28;20211;-69
2022/11/24 07:14:04;;;;;;;24.83;7.10;;;8.10;99.90;;;;;;5015320;28;20187;-69
2022/11/24 07:16:30;;;;;;;24.00;7.27;;;8.10;99.90;;;;;;5015479;28;20175;-69
2022/11/24 07:18:57;;;;;;;18.03;6.60;;;8.10;99.90;;;;;;5015052;28;20278;-69
2022/11/24 07:21:24;;;;;;;18.97;6.63;;;8.10;99.90;;;;;;5015112;28;20203;-70
2022/11/24 07:23:51;;;;;;;18.83;6.53;;;8.10;99.90;;;;;;4996635;28;20255;-69
2022/11/24 07:26:18;;;;;;;26.47;7.03;;;8.10;99.90;;;;;;5014941;28;20176;-69
2022/11/24 07:28:44;;;;;;;16.43;7.00;;;8.10;99.90;;;;;;5015007;28;20691;-70
2022/11/24 07:31:14;;;;;;;20.67;7.17;;;8.10;99.90;;;;;;5015034;28;20172;-69
2022/11/24 07:33:40;;;;;;;21.27;7.73;;;8.10;99.90;;;;;;5014972;28;20179;-69
2022/11/24 07:36:07;;;;;;;20.10;7.10;;;8.10;99.90;;;;;;5015040;28;20190;-69
2022/11/24 07:38:34;;;;;;;15.17;6.33;;;8.20;99.90;;;;;;5004274;28;20302;-69
2022/11/24 07:41:01;;;;;;;24.97;6.57;;;8.20;99.90;;;;;;5034507;28;20210;-70
2022/11/24 07:43:27;;;;;;;19.43;6.40;;;8.20;99.90;;;;;;5033206;28;20207;-70
2022/11/24 07:45:53;;;;;;;19.77;6.90;;;8.20;99.90;;;;;;5034496;28;20207;-69
2022/11/24 07:48:19;;;;;;;12.23;6.27;;;8.20;99.90;;;;;;5034252;28;20209;-69
2022/11/24 07:50:44;;;;;;;14.47;5.90;;;8.20;99.90;;;;;;5034859;28;20183;-69
2022/11/24 07:53:10;;;;;;;16.33;5.43;;;8.20;99.90;;;;;;5033058;28;20218;-69
2022/11/24 07:55:36;;;;;;;11.43;6.77;;;8.30;99.90;;;;;;5034215;28;20234;-69
2022/11/24 07:58:02;;;;;;;12.27;5.80;;;8.20;99.90;;;;;;5033052;28;20190;-70
2022/11/24 08:00:28;;;;;;;14.87;5.13;;;8.20;99.90;;;;;;5034588;28;20560;-69
2022/11/24 08:02:54;;;;;;;17.30;6.30;;;8.20;99.90;;;;;;5034535;28;20190;-69
2022/11/24 08:05:20;;;;;;;15.47;5.73;;;8.30;99.90;;;;;;5034130;28;20179;-69
2022/11/24 08:07:45;;;;;;;12.40;5.50;;;8.30;99.90;;;;;;5032797;28;20206;-69
2022/11/24 08:10:11;;;;;;;13.90;5.40;;;8.30;99.90;;;;;;5019542;28;20679;-69
2022/11/24 08:12:37;;;;;;;15.00;6.00;;;8.20;99.90;;;;;;5014118;28;20188;-69
2022/11/24 08:15:03;;;;;;;15.23;5.77;;;8.30;99.90;;;;;;4996697;28;20184;-69
2022/11/24 08:17:29;;;;;;;12.90;5.83;;;8.30;99.90;;;;;;5014111;28;20239;-69
2022/11/24 08:19:55;;;;;;;16.17;5.43;;;8.20;99.90;;;;;;4996325;28;20207;-69
2022/11/24 08:22:20;;;;;;;11.13;5.13;;;8.20;99.90;;;;;;5014345;28;20557;-69
2022/11/24 08:24:47;;;;;;;14.60;5.47;;;8.30;99.90;;;;;;4996353;28;20180;-69
2022/11/24 08:27:15;;;;;;;14.60;5.77;;;8.30;99.90;;;;;;5013931;28;20601;-69
2022/11/24 08:29:41;;;;;;;14.57;5.03;;;8.30;99.90;;;;;;5013929;28;20720;-69
2022/11/24 08:32:09;;;;;;;9.90;4.90;;;8.30;99.90;;;;;;4996498;28;20188;-69
2022/11/24 08:34:35;;;;;;;12.37;5.33;;;8.30;99.90;;;;;;4996514;28;20183;-69
2022/11/24 08:37:05;;;;;;;11.40;5.50;;;8.40;99.90;;;;;;5014810;28;20179;-69
2022/11/24 08:39:31;;;;;;;10.53;4.73;;;8.40;99.90;;;;;;5014321;28;20231;-68
2022/11/24 08:41:57;;;;;;;7.90;4.60;;;8.40;99.90;;;;;;4996437;28;20582;-69
2022/11/24 08:44:22;;;;;;;11.60;5.03;;;8.40;99.90;;;;;;5014360;28;20258;-69
2022/11/24 08:46:49;;;;;;;7.13;4.43;;;8.40;99.90;;;;;;4996195;28;20187;-69
2022/11/24 08:49:15;;;;;;;9.23;4.40;;;8.40;99.90;;;;;;4996018;28;20199;-69
2022/11/24 08:51:42;;;;;;;10.87;5.37;;;8.40;99.90;;;;;;5013741;28;20226;-69
2022/11/24 08:54:12;;;;;;;11.73;4.50;;;8.50;99.90;;;;;;5013887;28;20179;-69
2022/11/24 08:56:38;;;;;;;7.23;4.70;;;8.50;99.90;;;;;;5013787;28;20172;-69
2022/11/24 08:59:03;;;;;;;7.27;4.10;;;8.50;99.90;;;;;;5013481;28;20206;-68
2022/11/24 09:01:29;;;;;;;12.57;4.57;;;8.50;99.90;;;;;;5013867;28;20207;-68
2022/11/24 09:03:55;;;;;;;8.97;4.70;;;8.50;99.90;;;;;;5013459;28;20195;-69
2022/11/24 09:06:25;;;;;;;6.67;4.50;;;8.40;99.90;;;;;;4995979;28;20203;-69
2022/11/24 09:08:55;;;;;;;9.13;5.17;;;8.40;99.90;;;;;;5013421;28;20668;-69
2022/11/24 09:11:21;;;;;;;5.73;4.27;;;8.40;99.90;;;;;;5013642;28;20169;-68
2022/11/24 09:13:48;;;;;;;8.77;4.30;;;8.40;99.90;;;;;;4995932;28;20176;-68
2022/11/24 09:16:16;;;;;;;12.43;4.57;;;8.40;99.90;;;;;;5013588;28;20175;-69
2022/11/24 09:18:42;;;;;;;9.07;4.30;;;8.40;99.90;;;;;;5013906;28;20192;-68
2022/11/24 09:21:09;;;;;;;5.83;4.37;;;8.40;99.90;;;;;;5013888;28;20227;-68
2022/11/24 09:23:35;;;;;;;8.90;5.10;;;8.40;99.90;;;;;;5013340;28;20247;-68
2022/11/24 09:26:10;;;;;;;7.37;4.60;;;8.40;99.90;;;;;;5013270;28;20199;-68
2022/11/24 09:28:35;;;;;;;8.27;4.97;;;8.50;99.90;;;;;;5013709;28;20188;-69
2022/11/24 09:31:06;;;;;;;6.83;4.73;;;8.50;99.90;;;;;;5013532;28;20225;-69
2022/11/24 09:33:32;;;;;;;12.00;5.00;;;8.50;99.90;;;;;;5013641;28;20172;-68
2022/11/24 09:35:59;;;;;;;8.23;5.10;;;8.50;99.90;;;;;;4995626;28;20175;-69
2022/11/24 09:38:25;;;;;;;11.83;6.10;;;8.40;99.90;;;;;;5013159;28;20716;-68
2022/11/24 09:40:52;;;;;;;11.07;5.53;;;8.30;99.90;;;;;;5013087;28;20234;-68
2022/11/24 09:43:39;;;;;;;11.60;5.83;;;8.20;99.90;;;;;;5013459;28;20168;-68
2022/11/24 09:46:23;;;;;;;15.53;6.23;;;8.20;99.90;;;;;;5013518;28;20219;-68
2022/11/24 09:48:55;;;;;;;8.27;5.73;;;8.10;99.90;;;;;;5017049;28;20191;-68
2022/11/24 09:51:28;;;;;;;10.83;5.80;;;8.00;99.90;;;;;;5016856;28;20187;-68
2022/11/24 09:54:05;;;;;;;8.83;5.70;;;8.10;99.90;;;;;;5017096;28;20157;-68
2022/11/24 09:56:37;;;;;;;7.60;5.57;;;8.00;99.90;;;;;;5016791;28;20168;-68
2022/11/24 09:59:10;;;;;;;9.00;5.60;;;8.10;99.90;;;;;;4999067;28;20195;-68
2022/11/24 10:01:40;;;;;;;11.50;6.70;;;8.10;99.90;;;;;;5016562;28;20204;-68
2022/11/24 10:04:38;;;;;;;12.10;7.20;;;8.10;99.90;;;;;;5017179;28;20175;-68
2022/11/24 10:07:07;;;;;;;9.77;5.90;;;8.20;99.90;;;;;;4998908;28;20172;-68
2022/11/24 10:09:35;;;;;;;12.77;6.03;;;8.20;99.90;;;;;;4998572;28;20216;-68
2022/11/24 10:12:22;;;;;;;10.33;5.87;;;8.20;99.90;;;;;;5016312;28;20176;-68
2022/11/24 10:15:28;;;;;;;12.67;6.20;;;8.30;99.90;;;;;;4998769;28;20663;-68
2022/11/24 10:18:15;;;;;;;6.50;5.73;;;8.30;99.90;;;;;;5016762;28;20530;-68
2022/11/24 10:20:44;;;;;;;14.80;6.20;;;8.30;99.90;;;;;;4999225;28;20270;-69
2022/11/24 10:23:32;;;;;;;18.73;6.00;;;8.30;99.90;;;;;;5016524;28;20637;-68
2022/11/24 10:25:59;;;;;;;10.17;6.30;;;8.40;99.90;;;;;;4998447;28;20230;-68
2022/11/24 10:28:53;;;;;;;13.00;6.10;;;8.40;99.90;;;;;;5016124;28;20680;-68
2022/11/24 10:31:28;;;;;;;11.63;6.23;;;8.50;99.90;;;;;;5006337;28;20219;-68
2022/11/24 10:33:58;;;;;;;9.77;6.03;;;8.50;99.90;;;;;;5016233;28;20159;-68
2022/11/24 10:36:59;;;;;;;14.47;6.23;;;8.60;99.90;;;;;;5016449;28;20207;-68
2022/11/24 10:39:40;;;;;;;10.63;6.13;;;8.60;99.90;;;;;;4994991;28;20223;-68
2022/11/24 10:42:14;;;;;;;14.70;6.03;;;8.60;99.90;;;;;;4998226;28;20250;-68
2022/11/24 10:44:42;;;;;;;11.97;5.93;;;8.70;99.90;;;;;;5016203;28;20617;-68
2022/11/24 10:47:18;;;;;;;14.97;5.93;;;8.70;99.90;;;;;;5015989;28;20168;-68
2022/11/24 10:50:14;;;;;;;10.87;6.30;;;8.70;99.90;;;;;;5016052;28;20675;-68
2022/11/24 10:52:43;;;;;;;17.23;6.03;;;8.70;99.90;;;;;;5015761;28;20222;-68
2022/11/24 10:55:09;;;;;;;11.07;5.17;;;8.70;99.90;;;;;;5016102;28;20187;-68
2022/11/24 10:57:37;;;;;;;13.30;5.57;;;8.70;99.90;;;;;;5015504;28;20172;-68
2022/11/24 11:00:18;;;;;;;14.03;6.97;;;8.70;99.90;;;;;;5015476;28;20210;-68
2022/11/24 11:02:46;;;;;;;12.83;6.77;;;8.70;99.90;;;;;;4997979;28;20180;-68
2022/11/24 11:05:40;;;;;;;13.60;6.40;;;8.70;99.90;;;;;;5015639;28;20680;-68
2022/11/24 11:08:14;;;;;;;12.63;6.57;;;8.70;99.90;;;;;;5015533;28;20179;-68
2022/11/24 11:10:42;;;;;;;13.90;6.03;;;8.70;99.90;;;;;;5015020;28;20203;-67
2022/11/24 11:13:54;;;;;;;13.67;5.80;;;8.70;99.90;;;;;;5015354;28;20663;-68
2022/11/24 11:16:44;;;;;;;17.17;6.50;;;8.70;99.90;;;;;;4916704;29;20194;-68
2022/11/24 11:19:31;;;;;;;15.03;6.40;;;8.70;99.90;;;;;;5015546;28;20590;-68
2022/11/24 11:22:03;;;;;;;17.07;6.50;;;8.70;99.90;;;;;;5014996;28;20312;-68
2022/11/24 11:24:28;;;;;;;11.37;6.43;;;8.70;99.90;;;;;;5015109;28;20767;-68
2022/11/24 11:27:14;;;;;;;14.93;7.00;;;8.70;99.90;;;;;;5014924;28;20285;-67
2022/11/24 11:29:40;;;;;;;17.40;6.00;;;8.80;99.90;;;;;;5014894;28;20187;-68
2022/11/24 11:32:19;;;;;;;13.27;6.90;;;9.10;99.90;;;;;;5014811;28;20202;-68
2022/11/24 11:34:45;;;;;;;14.80;7.03;;;9.40;99.90;;;;;;5014952;28;20203;-68
2022/11/24 11:37:16;;;;;;;16.43;6.50;;;9.70;99.90;;;;;;4997343;28;20249;-68
2022/11/24 11:39:46;;;;;;;14.63;6.60;;;9.80;99.90;;;;;;4997131;28;20222;-68
2022/11/24 11:42:25;;;;;;;14.97;6.20;;;9.90;99.90;;;;;;5015096;28;20586;-68
2022/11/24 11:44:56;;;;;;;14.07;6.07;;;9.80;99.90;;;;;;5015051;28;20148;-68
2022/11/24 11:47:27;;;;;;;19.67;6.27;;;9.80;99.90;;;;;;4997292;28;20171;-67
2022/11/24 11:49:53;;;;;;;18.37;6.17;;;9.80;99.90;;;;;;5015201;28;20234;-67
2022/11/24 11:52:49;;;;;;;14.23;5.23;;;9.80;99.90;;;;;;5014882;28;20306;-67
2022/11/24 11:55:40;;;;;;;11.27;5.73;;;9.70;99.90;;;;;;5014941;28;20243;-67
2022/11/24 11:58:21;;;;;;;9.43;5.00;;;9.60;99.90;;;;;;5013246;28;20210;-67
2022/11/24 12:01:09;;;;;;;15.00;6.00;;;9.60;99.90;;;;;;5014390;28;20691;-67
2022/11/24 12:04:11;;;;;;;11.83;5.47;;;9.60;99.90;;;;;;5013305;28;20187;-67
2022/11/24 12:06:58;;;;;;;7.37;4.70;;;9.60;99.90;;;;;;5014590;28;20163;-67
2022/11/24 12:09:42;;;;;;;10.90;5.57;;;9.70;99.90;;;;;;4996323;28;20223;-67
2022/11/24 12:12:42;;;;;;;13.60;5.63;;;9.70;99.90;;;;;;5014353;28;20175;-67
2022/11/24 12:15:35;;;;;;;13.80;5.90;;;10.00;99.90;;;;;;5014584;28;20160;-67
2022/11/24 12:18:24;;;;;;;13.07;5.60;;;10.30;99.90;;;;;;5014794;28;20191;-67
2022/11/24 12:21:07;;;;;;;14.50;4.83;;;10.50;99.90;;;;;;5015337;28;20246;-68
2022/11/24 12:24:12;;;;;;;9.40;5.03;;;10.60;99.90;;;;;;5014494;28;20168;-67
2022/11/24 12:27:15;;;;;;;15.50;5.33;;;10.80;99.90;;;;;;5015133;28;20160;-67
2022/11/24 12:29:51;;;;;;;16.73;5.37;;;10.70;99.90;;;;;;5014359;28;20195;-67
2022/11/24 12:32:35;;;;;;;12.40;5.13;;;10.60;99.90;;;;;;5014470;28;20254;-67
2022/11/24 12:35:32;;;;;;;15.03;4.97;;;10.50;99.90;;;;;;5014414;28;20179;-67
2022/11/24 12:38:22;;;;;;;14.30;5.23;;;10.50;99.90;;;;;;4996740;28;20187;-67
2022/11/24 12:41:18;;;;;;;13.37;5.37;;;10.50;99.90;;;;;;5014278;28;20195;-67
2022/11/24 12:43:57;;;;;;;13.73;5.13;;;10.50;99.90;;;;;;5014646;28;20156;-68
2022/11/24 12:46:43;;;;;;;12.97;5.40;;;10.50;99.90;;;;;;5014386;28;20171;-67
2022/11/24 12:49:32;;;;;;;12.43;5.47;;;10.30;99.90;;;;;;5013880;28;20196;-67
2022/11/24 12:52:07;;;;;;;12.77;5.23;;;10.20;99.90;;;;;;5013970;28;20217;-67
2022/11/24 12:54:40;;;;;;;12.97;5.43;;;10.10;99.90;;;;;;5013892;28;20168;-67
2022/11/24 12:57:19;;;;;;;13.07;4.90;;;10.10;99.90;;;;;;5013939;28;20227;-67
2022/11/24 13:00:11;;;;;;;14.60;5.67;;;10.00;99.90;;;;;;5013772;28;20213;-67
2022/11/24 13:02:54;;;;;;;13.00;5.37;;;10.10;99.90;;;;;;5011586;28;20211;-67
2022/11/24 13:05:34;;;;;;;10.63;4.70;;;10.20;99.90;;;;;;5013604;28;20168;-67
2022/11/24 13:08:03;;;;;;;10.77;5.60;;;10.30;99.90;;;;;;5013791;28;20186;-67
2022/11/24 13:10:33;;;;;;;13.77;4.93;;;10.50;99.90;;;;;;5013497;28;20214;-67
2022/11/24 13:13:08;;;;;;;14.90;4.97;;;10.70;99.90;;;;;;5013404;28;20168;-67